Pagina principale
METAR-TAF:

METAR-TAF

Aeroporti :

Aeroporto Internazionale del Kuwait

Madinat al-Kuwait, Kuwait

latitudine: 29-13N, longitudine: 047-59E, altezza: 55 m

Osservazione

Il bollettino è stato emesso 18 minuti fa, alle 08:00 UTC
Vento 17 kt da nord
Temperature 44°C
Umidità 7%
Pressione 1003 hPa
Visibilità 10 km o più
nessuna nube inferiore a 1500 m e nessun cumulonembo

METAR: OKBK 070800Z 35017KT CAVOK 44/M00 Q1003 NOSIG

Ora: 11:18 (08:18 UTC)

Previsione

Il bollettino è stato emesso 3 ore e 33 minuti fa, alle 04:45 UTC
Previsione valida dal 07 alle 06 UTC al 08 alle 12 UTC
Vento 15 kt da nord/nord-ovest con raffiche fino a 25 kt
Visibilità: 7000 m
Temporaneamente
dal 07 alle 06 UTC al 07 alle 18 UTC
Visibilità: 3000 m
Scaccia polvere alto

TAF: OKBK 070445Z 0706/0812 34015G25KT 7000 NSC TEMPO 0706/0718 3000 BLDU

Osservazioni e previsioni meteorologiche di più di 4000 aeroporti (messaggi METAR e TAF).

Le stazioni disponibili sono rappresentate dai dischi gialli e rossi sulla carta.

Puntare il mouse per vedere il nome della stazione.

Clicca sopra per visualizzare le osservazioni e previsioni meteorologiche.

Per cambiare la mappa : fare clic sui pulsanti verdi con una croce nera per ingrandire, il pulsante verde con un trattino per diminuire, o sulla freccia verde per le mappe adiacenti.


METAR-TAF: